createdAt,value
2018-12-14T00:00:40.191Z,99423.59
2018-12-14T00:03:08.807Z,99431.73
2018-12-14T00:05:37.770Z,99433.81
2018-12-14T00:08:05.989Z,99429.02
2018-12-14T00:10:34.124Z,99432.45
2018-12-14T00:13:02.357Z,99432.55
2018-12-14T00:15:30.248Z,99427.73
2018-12-14T00:20:35.466Z,99428.28
2018-12-14T00:23:03.296Z,99431.60
2018-12-14T00:25:31.407Z,99430.42
2018-12-14T00:27:59.105Z,99430.70
2018-12-14T00:30:27.210Z,99432.92
2018-12-14T00:32:54.879Z,99435.61
2018-12-14T00:35:23.097Z,99438.06
2018-12-14T00:37:50.838Z,99442.30
2018-12-14T00:40:18.433Z,99449.57
2018-12-14T00:42:48.059Z,99444.94
2018-12-14T00:45:15.908Z,99441.98
2018-12-14T00:47:43.727Z,99445.86
2018-12-14T00:50:11.486Z,99437.35
2018-12-14T00:52:39.552Z,99438.67
2018-12-14T00:55:07.377Z,99453.69
2018-12-14T00:57:35.949Z,99450.63
2018-12-14T01:00:05.400Z,99446.94
2018-12-14T01:02:33.336Z,99456.30
2018-12-14T01:05:01.462Z,99449.79
2018-12-14T01:07:29.154Z,99452.69
2018-12-14T01:09:56.945Z,99448.05
2018-12-14T01:12:24.803Z,99454.91
2018-12-14T01:14:52.856Z,99452.82
2018-12-14T01:17:20.809Z,99450.63
2018-12-14T01:19:48.440Z,99455.03
2018-12-14T01:22:16.510Z,99459.28
2018-12-14T01:24:44.140Z,99452.87
2018-12-14T01:27:12.159Z,99452.39
2018-12-14T01:29:40.308Z,99461.46
2018-12-14T01:32:08.066Z,99462.83
2018-12-14T01:34:36.812Z,99467.08
2018-12-14T01:37:04.877Z,99469.66
2018-12-14T01:39:33.447Z,99462.78
2018-12-14T01:42:04.809Z,99470.02
2018-12-14T01:44:31.938Z,99470.48
2018-12-14T01:46:59.529Z,99475.64
2018-12-14T01:49:27.565Z,99476.51
2018-12-14T01:51:55.667Z,99476.06
2018-12-14T01:54:24.593Z,99477.08
2018-12-14T01:56:52.109Z,99479.22
2018-12-14T01:59:19.698Z,99474.35
2018-12-14T02:01:47.279Z,99467.47
2018-12-14T02:04:14.871Z,99471.34
2018-12-14T02:06:42.432Z,99470.48
2018-12-14T02:09:09.984Z,99468.42
2018-12-14T02:11:37.555Z,99465.39
2018-12-14T02:14:05.096Z,99467.92
2018-12-14T02:16:32.680Z,99472.27
2018-12-14T02:19:00.266Z,99465.89
2018-12-14T02:21:28.563Z,99474.87
2018-12-14T02:23:56.192Z,99468.39
2018-12-14T02:26:23.819Z,99475.35
2018-12-14T02:28:51.425Z,99479.30
2018-12-14T02:31:19.009Z,99471.82
2018-12-14T02:33:46.595Z,99470.21
2018-12-14T02:36:14.175Z,99472.19
2018-12-14T02:38:41.765Z,99474.92
2018-12-14T02:41:09.421Z,99466.18
2018-12-14T02:43:37.104Z,99469.71
2018-12-14T02:46:04.810Z,99463.64
2018-12-14T02:48:32.416Z,99461.13
2018-12-14T02:51:00.104Z,99461.54
2018-12-14T02:53:27.749Z,99462.16
2018-12-14T02:55:55.317Z,99456.97
2018-12-14T02:58:22.925Z,99459.55
2018-12-14T03:00:50.547Z,99456.08
2018-12-14T03:03:18.209Z,99463.02
2018-12-14T03:05:45.896Z,99464.80
2018-12-14T03:08:13.516Z,99454.02
2018-12-14T03:10:41.216Z,99458.29
2018-12-14T03:13:08.788Z,99451.37
2018-12-14T03:15:36.430Z,99454.55
2018-12-14T03:18:04.030Z,99452.36
2018-12-14T03:20:31.632Z,99454.47
2018-12-14T03:22:59.168Z,99446.33
2018-12-14T03:25:26.739Z,99446.75
2018-12-14T03:27:54.318Z,99451.56
2018-12-14T03:30:21.944Z,99454.96
2018-12-14T03:32:49.506Z,99460.53
2018-12-14T03:35:17.083Z,99465.27
2018-12-14T03:37:44.626Z,99456.61
2018-12-14T03:40:12.316Z,99460.84
2018-12-14T03:42:39.851Z,99463.51
2018-12-14T03:45:07.603Z,99455.44
2018-12-14T03:47:35.128Z,99454.41
2018-12-14T03:50:02.752Z,99463.41
2018-12-14T03:52:30.355Z,99449.15
2018-12-14T03:54:57.929Z,99459.53
2018-12-14T03:57:25.570Z,99456.23
2018-12-14T03:59:53.295Z,99447.96
2018-12-14T04:02:20.952Z,99451.89
2018-12-14T04:04:48.489Z,99456.23
2018-12-14T04:07:16.068Z,99460.10
2018-12-14T04:09:43.692Z,99458.69
2018-12-14T04:12:11.387Z,99460.30
2018-12-14T04:14:39.053Z,99463.02
2018-12-14T04:17:06.749Z,99459.95
2018-12-14T04:19:34.344Z,99465.12
2018-12-14T04:22:02.030Z,99468.49
2018-12-14T04:24:29.616Z,99462.04
2018-12-14T04:26:57.272Z,99466.39
2018-12-14T04:29:24.943Z,99465.91
2018-12-14T04:31:52.603Z,99464.70
2018-12-14T04:34:20.184Z,99463.97
2018-12-14T04:36:47.827Z,99461.81
2018-12-14T04:39:15.466Z,99465.17
2018-12-14T04:41:43.097Z,99467.30
2018-12-14T04:44:10.830Z,99474.95
2018-12-14T04:46:38.422Z,99480.30
2018-12-14T04:49:05.993Z,99480.70
2018-12-14T04:51:33.644Z,99481.43
2018-12-14T04:54:01.201Z,99477.93
2018-12-14T04:56:28.800Z,99470.33
2018-12-14T04:58:56.360Z,99469.47
2018-12-14T05:01:24.030Z,99478.84
2018-12-14T05:03:51.598Z,99487.89
2018-12-14T05:06:19.212Z,99490.49
2018-12-14T05:08:46.756Z,99489.17
2018-12-14T05:11:14.314Z,99487.84
2018-12-14T05:13:41.845Z,99486.64
2018-12-14T05:16:09.416Z,99473.23
2018-12-14T05:18:36.971Z,99485.30
2018-12-14T05:21:04.534Z,99480.54
2018-12-14T05:23:32.069Z,99483.63
2018-12-14T05:25:59.671Z,99482.37
2018-12-14T05:28:27.220Z,99485.78
2018-12-14T05:30:54.810Z,99479.32
2018-12-14T05:33:22.523Z,99479.99
2018-12-14T05:35:50.123Z,99477.03
2018-12-14T05:38:17.734Z,99480.09
2018-12-14T05:40:45.420Z,99472.39
2018-12-14T05:43:13.076Z,99476.16
2018-12-14T05:45:40.686Z,99483.09
2018-12-14T05:48:08.296Z,99487.73
2018-12-14T05:50:35.869Z,99482.25
2018-12-14T05:53:03.463Z,99477.98
2018-12-14T05:55:31.114Z,99478.00
2018-12-14T05:57:58.702Z,99484.53
2018-12-14T06:00:26.242Z,99481.08
2018-12-14T06:02:53.836Z,99475.79
2018-12-14T06:05:21.392Z,99477.95
2018-12-14T06:07:50.211Z,99464.20
2018-12-14T06:10:17.768Z,99467.18
2018-12-14T06:12:45.377Z,99465.14
2018-12-14T06:15:12.964Z,99458.61
2018-12-14T06:17:40.581Z,99458.95
2018-12-14T06:20:08.165Z,99460.75
2018-12-14T06:22:35.751Z,99461.44
2018-12-14T06:25:03.552Z,99468.56
2018-12-14T06:27:31.121Z,99471.34
2018-12-14T06:29:58.664Z,99474.08
2018-12-14T06:32:26.269Z,99482.27
2018-12-14T06:34:53.844Z,99462.29
2018-12-14T06:37:21.820Z,99493.05
2018-12-14T06:39:49.354Z,99499.46
2018-12-14T06:42:17.157Z,99501.62
2018-12-14T06:44:44.675Z,99514.48
2018-12-14T06:47:12.226Z,99516.20
2018-12-14T06:49:39.746Z,99513.56
2018-12-14T06:52:07.299Z,99525.27
2018-12-14T06:54:34.803Z,99521.44
2018-12-14T06:57:02.385Z,99527.05
2018-12-14T06:59:29.934Z,99528.81
2018-12-14T07:01:57.777Z,99532.58
2018-12-14T07:04:25.317Z,99536.84
2018-12-14T07:06:52.890Z,99539.38
2018-12-14T07:09:20.582Z,99543.70
2018-12-14T07:11:48.514Z,99554.42
2018-12-14T07:14:16.119Z,99553.10
2018-12-14T07:16:43.668Z,99557.02
2018-12-14T07:19:12.595Z,99556.58
2018-12-14T07:21:40.224Z,99558.41
2018-12-14T07:24:07.895Z,99565.66
2018-12-14T07:26:36.200Z,99564.28
2018-12-14T07:29:03.921Z,99571.53
2018-12-14T07:31:31.761Z,99571.91
2018-12-14T07:33:59.357Z,99577.62
2018-12-14T07:36:26.873Z,99584.05
2018-12-14T07:38:54.461Z,99581.94
2018-12-14T07:41:21.997Z,99583.70
2018-12-14T07:43:49.588Z,99589.73
2018-12-14T07:46:17.437Z,99601.69
2018-12-14T07:48:44.994Z,99604.70
2018-12-14T07:51:12.527Z,99604.74
2018-12-14T07:53:40.173Z,99612.34
2018-12-14T07:56:07.808Z,99612.00
2018-12-14T07:58:36.565Z,99606.52
2018-12-14T08:01:04.132Z,99614.30
2018-12-14T08:03:31.772Z,99621.53
2018-12-14T08:05:59.806Z,99614.93
2018-12-14T08:08:27.405Z,99624.59
2018-12-14T08:10:55.477Z,99627.24
2018-12-14T08:13:23.083Z,99625.58
2018-12-14T08:15:50.593Z,99628.67
2018-12-14T08:18:18.190Z,99621.32
2018-12-14T08:20:45.749Z,99627.24
2018-12-14T08:23:13.336Z,99635.58
2018-12-14T08:25:40.882Z,99641.42
2018-12-14T08:28:08.511Z,99638.45
2018-12-14T08:30:36.105Z,99655.12
2018-12-14T08:33:03.696Z,99663.44
2018-12-14T08:35:31.249Z,99665.61
2018-12-14T08:37:58.818Z,99674.16
2018-12-14T08:40:26.419Z,99673.64
2018-12-14T08:42:54.002Z,99671.55
2018-12-14T08:45:21.573Z,99677.61
2018-12-14T08:47:49.240Z,99678.50
2018-12-14T08:50:16.772Z,99678.96
2018-12-14T08:52:45.614Z,99685.58
2018-12-14T08:55:13.687Z,99677.87
2018-12-14T08:57:41.425Z,99677.75
2018-12-14T09:00:09.183Z,99684.27
2018-12-14T09:02:36.774Z,99689.86
2018-12-14T09:05:05.554Z,99691.30
2018-12-14T09:07:35.138Z,99692.91
2018-12-14T09:10:03.480Z,99700.20
2018-12-14T09:12:31.099Z,99692.16
2018-12-14T09:14:58.694Z,99704.89
2018-12-14T09:17:26.244Z,99696.86
2018-12-14T09:19:53.832Z,99705.94
2018-12-14T09:22:21.775Z,99709.17
2018-12-14T09:24:49.476Z,99711.37
2018-12-14T09:27:17.078Z,99712.63
2018-12-14T09:29:44.686Z,99714.83
2018-12-14T09:32:12.506Z,99715.56
2018-12-14T09:34:40.809Z,99708.28
2018-12-14T09:37:08.351Z,99711.84
2018-12-14T09:39:36.411Z,99706.19
2018-12-14T09:42:04.055Z,99707.77
2018-12-14T09:44:31.613Z,99708.19
2018-12-14T09:46:59.165Z,99703.09
2018-12-14T09:49:26.752Z,99707.37
2018-12-14T09:51:54.351Z,99707.72
2018-12-14T09:54:22.576Z,99707.80
2018-12-14T09:56:50.140Z,99703.84
2018-12-14T09:59:17.718Z,99702.95
2018-12-14T10:01:45.362Z,99700.39
2018-12-14T10:04:13.046Z,99700.59
2018-12-14T10:06:41.027Z,99697.98
2018-12-14T10:09:08.636Z,99703.92
2018-12-14T10:11:36.358Z,99704.09
2018-12-14T10:14:03.927Z,99704.68
2018-12-14T10:16:31.445Z,99699.45
2018-12-14T10:18:59.016Z,99701.11
2018-12-14T10:21:26.553Z,99698.15
2018-12-14T10:23:54.634Z,99701.73
2018-12-14T10:26:22.165Z,99698.63
2018-12-14T10:28:49.718Z,99702.80
2018-12-14T10:31:17.231Z,99698.10
2018-12-14T10:33:44.791Z,99694.66
2018-12-14T10:36:12.303Z,99696.36
2018-12-14T10:38:39.983Z,99703.34
2018-12-14T10:41:07.508Z,99697.06
2018-12-14T10:43:35.043Z,99702.61
2018-12-14T10:46:02.656Z,99703.63
2018-12-14T10:48:30.209Z,99698.97
2018-12-14T10:50:58.576Z,99701.71
2018-12-14T10:53:26.123Z,99694.66
2018-12-14T10:55:53.692Z,99689.48
2018-12-14T10:58:21.574Z,99690.70
2018-12-14T11:00:54.728Z,99682.54
2018-12-14T11:03:22.248Z,99689.84
2018-12-14T11:05:50.361Z,99687.66
2018-12-14T11:08:17.946Z,99682.07
2018-12-14T11:10:45.480Z,99683.22
2018-12-14T11:13:12.997Z,99679.98
2018-12-14T11:15:40.545Z,99681.23
2018-12-14T11:18:08.076Z,99679.11
2018-12-14T11:20:35.606Z,99685.90
2018-12-14T11:23:03.118Z,99681.02
2018-12-14T11:25:30.668Z,99682.54
2018-12-14T11:27:58.194Z,99678.52
2018-12-14T11:30:25.738Z,99675.03
2018-12-14T11:32:53.263Z,99674.45
2018-12-14T11:35:20.816Z,99680.66
2018-12-14T11:37:48.329Z,99683.08
2018-12-14T11:40:15.878Z,99672.49
2018-12-14T11:42:43.398Z,99676.33
2018-12-14T11:45:10.962Z,99675.33
2018-12-14T11:47:38.463Z,99673.61
2018-12-14T11:50:07.604Z,99668.80
2018-12-14T11:52:35.125Z,99656.77
2018-12-14T11:55:02.686Z,99656.19
2018-12-14T11:57:30.277Z,99655.30
2018-12-14T11:59:58.696Z,99668.52
2018-12-14T12:02:26.213Z,99668.02
2018-12-14T12:04:53.755Z,99671.42
2018-12-14T12:07:21.274Z,99666.48
2018-12-14T12:09:50.135Z,99670.81
2018-12-14T12:12:18.409Z,99674.73
2018-12-14T12:14:46.036Z,99674.73
2018-12-14T12:17:15.525Z,99680.23
2018-12-14T12:19:43.127Z,99676.67
2018-12-14T12:22:10.645Z,99678.84
2018-12-14T12:24:38.188Z,99675.77
2018-12-14T12:27:05.690Z,99679.92
2018-12-14T12:29:33.220Z,99678.02
2018-12-14T12:32:00.735Z,99679.75
2018-12-14T12:34:28.297Z,99678.94
2018-12-14T12:36:55.831Z,99681.25
2018-12-14T12:39:23.501Z,99686.00
2018-12-14T12:41:51.756Z,99681.25
2018-12-14T12:44:19.283Z,99676.89
2018-12-14T12:46:46.819Z,99681.37
2018-12-14T12:49:14.347Z,99683.91
2018-12-14T12:51:42.423Z,99684.33
2018-12-14T12:54:10.381Z,99681.55
2018-12-14T12:56:40.651Z,99685.05
2018-12-14T12:59:08.459Z,99687.24
2018-12-14T13:01:36.242Z,99689.92
2018-12-14T13:04:04.523Z,99685.70
2018-12-14T13:06:32.140Z,99679.66
2018-12-14T13:09:00.169Z,99686.94
2018-12-14T13:11:28.261Z,99686.64
2018-12-14T13:13:55.804Z,99689.77
2018-12-14T13:16:23.520Z,99694.31
2018-12-14T13:18:51.061Z,99693.52
2018-12-14T13:21:18.611Z,99693.38
2018-12-14T13:23:46.159Z,99702.50
2018-12-14T13:26:13.712Z,99697.66
2018-12-14T13:28:41.248Z,99707.55
2018-12-14T13:31:08.802Z,99706.22
2018-12-14T13:33:37.752Z,99705.88
2018-12-14T13:36:05.454Z,99704.30
2018-12-14T13:38:32.977Z,99704.07
2018-12-14T13:41:00.610Z,99706.80
2018-12-14T13:43:28.132Z,99716.13
2018-12-14T13:45:55.740Z,99712.23
2018-12-14T13:48:23.302Z,99717.85
2018-12-14T13:50:50.873Z,99722.92
2018-12-14T13:53:18.427Z,99724.69
2018-12-14T13:55:46.029Z,99731.36
2018-12-14T13:58:13.573Z,99730.45
2018-12-14T14:00:41.146Z,99738.56
2018-12-14T14:03:08.746Z,99745.02
2018-12-14T14:05:36.270Z,99753.20
2018-12-14T14:08:03.859Z,99756.13
2018-12-14T14:10:31.423Z,99756.15
2018-12-14T14:13:03.684Z,99757.03
2018-12-14T14:15:32.107Z,99756.49
2018-12-14T14:17:59.659Z,99762.16
2018-12-14T14:20:27.437Z,99765.37
2018-12-14T14:22:54.962Z,99767.91
2018-12-14T14:25:22.455Z,99773.15
2018-12-14T14:27:49.974Z,99771.37
2018-12-14T14:30:17.462Z,99773.53
2018-12-14T14:32:44.986Z,99779.86
2018-12-14T14:35:12.555Z,99782.17
2018-12-14T14:37:40.075Z,99786.03
2018-12-14T14:40:07.567Z,99780.53
2018-12-14T14:42:35.085Z,99790.71
2018-12-14T14:45:02.665Z,99792.56
2018-12-14T14:47:30.199Z,99798.69
2018-12-14T14:49:57.697Z,99802.91
2018-12-14T14:52:25.472Z,99800.34
2018-12-14T14:54:53.141Z,99796.61
2018-12-14T14:57:20.735Z,99800.10
2018-12-14T14:59:48.254Z,99798.83
2018-12-14T15:02:17.334Z,99795.34
2018-12-14T15:04:44.921Z,99796.71
2018-12-14T15:07:12.449Z,99798.45
2018-12-14T15:09:39.997Z,99795.41
2018-12-14T15:12:07.551Z,99794.13
2018-12-14T15:14:35.186Z,99806.59
2018-12-14T15:17:02.720Z,99800.28
2018-12-14T15:19:32.811Z,99805.05
2018-12-14T15:22:04.605Z,99811.03
2018-12-14T15:24:30.377Z,99814.48
2018-12-14T15:26:57.903Z,99814.86
2018-12-14T15:29:26.547Z,99813.19
2018-12-14T15:31:55.127Z,99815.81
2018-12-14T15:34:23.622Z,99814.05
2018-12-14T15:36:54.444Z,99820.55
2018-12-14T15:39:26.190Z,99828.36
2018-12-14T15:41:55.604Z,99831.27
2018-12-14T15:44:23.828Z,99833.09
2018-12-14T15:46:53.851Z,99845.42
2018-12-14T15:49:23.929Z,99848.53
2018-12-14T15:51:52.956Z,99851.92
2018-12-14T15:54:22.153Z,99854.81
2018-12-14T15:56:53.731Z,99857.30
2018-12-14T15:59:22.031Z,99853.57
2018-12-14T16:01:51.640Z,99853.61
2018-12-14T16:04:19.781Z,99855.00
2018-12-14T16:06:48.425Z,99855.04
2018-12-14T16:09:17.477Z,99860.55
2018-12-14T16:11:45.726Z,99862.29
2018-12-14T16:14:13.363Z,99865.26
2018-12-14T16:16:41.029Z,99864.91
2018-12-14T16:19:09.816Z,99867.98
2018-12-14T16:21:40.401Z,99873.02
2018-12-14T16:24:10.010Z,99871.72
2018-12-14T16:26:44.161Z,99880.81
2018-12-14T16:29:13.877Z,99886.37
2018-12-14T16:31:49.690Z,99887.11
2018-12-14T16:34:18.717Z,99884.93
2018-12-14T16:36:48.693Z,99887.95
2018-12-14T16:39:21.749Z,99895.33
2018-12-14T16:41:51.702Z,99890.16
2018-12-14T16:46:57.161Z,99905.99
2018-12-14T16:49:27.683Z,99903.09
2018-12-14T16:52:03.609Z,99912.98
2018-12-14T16:54:33.996Z,99924.16
2018-12-14T16:57:02.103Z,99916.33
2018-12-14T16:59:30.608Z,99920.21
2018-12-14T17:01:58.635Z,99929.61
2018-12-14T17:04:29.453Z,99929.23
2018-12-14T17:06:57.545Z,99930.25
2018-12-14T17:09:25.574Z,99938.84
2018-12-14T17:11:57.512Z,99938.04
2018-12-14T17:14:25.119Z,99942.77
2018-12-14T17:16:52.727Z,99937.55
2018-12-14T17:19:20.408Z,99943.17
2018-12-14T17:21:48.127Z,99945.76
2018-12-14T17:24:15.683Z,99949.14
2018-12-14T17:26:43.323Z,99952.97
2018-12-14T17:29:14.533Z,99954.31
2018-12-14T17:31:48.990Z,99954.48
2018-12-14T17:34:17.539Z,99959.58
2018-12-14T17:36:46.603Z,99962.22
2018-12-14T17:39:14.406Z,99965.19
2018-12-14T17:41:42.423Z,99959.15
2018-12-14T17:44:10.268Z,99967.73
2018-12-14T17:46:38.126Z,99972.95
2018-12-14T17:49:05.995Z,99979.41
2018-12-14T17:51:34.138Z,99981.47
2018-12-14T17:54:02.444Z,99984.59
2018-12-14T17:56:33.107Z,99983.18
2018-12-14T17:59:00.735Z,99982.85
2018-12-14T18:01:29.285Z,99981.55
2018-12-14T18:03:57.895Z,99981.56
2018-12-14T18:06:25.682Z,99983.78
2018-12-14T18:08:53.525Z,99989.44
2018-12-14T18:11:21.569Z,99991.02
2018-12-14T18:13:49.562Z,99993.58
2018-12-14T18:16:18.716Z,99994.37
2018-12-14T18:18:46.389Z,99991.94
2018-12-14T18:21:17.798Z,99992.79
2018-12-14T18:23:47.307Z,99988.20
2018-12-14T18:26:15.344Z,99994.98
2018-12-14T18:28:42.971Z,99988.98
2018-12-14T18:31:10.578Z,99995.89
2018-12-14T18:33:39.016Z,99997.98
2018-12-14T18:36:06.987Z,99984.27
2018-12-14T18:38:34.776Z,99998.12
2018-12-14T18:41:02.483Z,99997.98
2018-12-14T18:43:30.097Z,100006.61
2018-12-14T18:45:57.855Z,100007.86
2018-12-14T18:48:25.540Z,100007.95
2018-12-14T18:50:53.089Z,100007.47
2018-12-14T18:53:20.605Z,100012.14
2018-12-14T18:55:48.156Z,100001.45
2018-12-14T18:58:15.727Z,100003.63
2018-12-14T19:00:43.613Z,100000.20
2018-12-14T19:03:11.171Z,100015.77
2018-12-14T19:05:38.703Z,100013.97
2018-12-14T19:08:06.255Z,100009.20
2018-12-14T19:10:33.813Z,100011.86
2018-12-14T19:13:01.366Z,100020.80
2018-12-14T19:15:28.890Z,100030.73
2018-12-14T19:17:56.440Z,100032.88
2018-12-14T19:20:23.968Z,100033.69
2018-12-14T19:25:26.618Z,100027.87
2018-12-14T19:27:54.176Z,100030.81
2018-12-14T19:30:21.691Z,100040.66
2018-12-14T19:32:49.265Z,100037.20
2018-12-14T19:35:16.817Z,100043.73
2018-12-14T19:37:44.397Z,100042.98
2018-12-14T19:40:11.947Z,100043.75
2018-12-14T19:42:39.503Z,100046.48
2018-12-14T19:45:08.338Z,100051.94
2018-12-14T19:47:35.970Z,100054.28
2018-12-14T19:50:06.394Z,100050.33
2018-12-14T19:52:34.159Z,100055.77
2018-12-14T19:55:01.764Z,100048.91
2018-12-14T19:57:29.330Z,100046.71
2018-12-14T19:59:56.923Z,100045.41
2018-12-14T20:02:24.557Z,100048.44
2018-12-14T20:04:52.097Z,100047.86
2018-12-14T20:07:20.168Z,100048.64
2018-12-14T20:09:47.712Z,100050.81
2018-12-14T20:12:15.384Z,100049.45
2018-12-14T20:14:43.211Z,100056.80
2018-12-14T20:17:10.767Z,100047.84
2018-12-14T20:19:38.403Z,100052.20
2018-12-14T20:22:06.046Z,100050.62
2018-12-14T20:24:33.684Z,100037.22
2018-12-14T20:27:01.545Z,100044.95
2018-12-14T20:29:29.255Z,100041.11
2018-12-14T20:31:56.895Z,100044.52
2018-12-14T20:34:24.457Z,100051.41
2018-12-14T20:36:52.068Z,100053.09
2018-12-14T20:39:19.632Z,100053.08
2018-12-14T20:41:47.167Z,100053.05
2018-12-14T20:44:14.815Z,100055.20
2018-12-14T20:46:42.375Z,100048.83
2018-12-14T20:49:10.090Z,100045.81
2018-12-14T20:51:38.028Z,100048.52
2018-12-14T20:54:05.740Z,100053.64
2018-12-14T20:56:33.868Z,100043.30
2018-12-14T20:59:01.676Z,100045.45
2018-12-14T21:01:29.981Z,100040.30
2018-12-14T21:03:57.626Z,100036.09
2018-12-14T21:06:26.621Z,100042.92
2018-12-14T21:08:54.230Z,100027.91
2018-12-14T21:11:21.785Z,100032.22
2018-12-14T21:13:49.354Z,100030.55
2018-12-14T21:16:17.000Z,100022.62
2018-12-14T21:18:44.767Z,100022.23
2018-12-14T21:21:12.315Z,100021.01
2018-12-14T21:23:39.888Z,100026.25
2018-12-14T21:26:07.427Z,100020.63
2018-12-14T21:28:35.052Z,100025.84
2018-12-14T21:31:02.577Z,100028.86
2018-12-14T21:33:30.130Z,100031.83
2018-12-14T21:35:57.655Z,100026.25
2018-12-14T21:38:25.203Z,100028.77
2018-12-14T21:40:52.716Z,100023.67
2018-12-14T21:43:20.328Z,100018.88
2018-12-14T21:45:47.899Z,100025.83
2018-12-14T21:48:15.440Z,100020.66
2018-12-14T21:50:42.967Z,100022.28
2018-12-14T21:53:14.489Z,100015.53
2018-12-14T21:55:40.105Z,100009.98
2018-12-14T21:58:08.158Z,100011.27
2018-12-14T22:00:35.713Z,100009.01
2018-12-14T22:03:03.267Z,100013.05
2018-12-14T22:05:30.797Z,100015.17
2018-12-14T22:07:58.376Z,100015.05
2018-12-14T22:10:25.899Z,100019.36
2018-12-14T22:12:53.455Z,100009.52
2018-12-14T22:15:21.533Z,100011.61
2018-12-14T22:17:49.649Z,100024.48
2018-12-14T22:20:17.244Z,100027.57
2018-12-14T22:22:44.978Z,100031.52
2018-12-14T22:25:12.977Z,100032.33
2018-12-14T22:27:40.654Z,100032.30
2018-12-14T22:30:13.561Z,100033.71
2018-12-14T22:35:27.268Z,100043.46
2018-12-14T22:37:54.889Z,100037.95
2018-12-14T22:40:22.930Z,100034.51
2018-12-14T22:42:51.740Z,100037.92
2018-12-14T22:45:20.424Z,100038.80
2018-12-14T22:47:49.373Z,100043.06
2018-12-14T22:50:17.412Z,100047.00
2018-12-14T22:52:46.076Z,100047.77
2018-12-14T22:55:14.032Z,100046.43
2018-12-14T22:57:42.116Z,100046.05
2018-12-14T23:00:12.822Z,100052.02
2018-12-14T23:02:40.820Z,100051.20
2018-12-14T23:05:08.899Z,100043.07
2018-12-14T23:07:36.661Z,100042.31
2018-12-14T23:10:05.020Z,100048.31
2018-12-14T23:12:33.040Z,100053.44
2018-12-14T23:15:00.602Z,100055.17
2018-12-14T23:17:28.234Z,100058.63
2018-12-14T23:19:55.888Z,100056.80
2018-12-14T23:22:24.550Z,100056.52
2018-12-14T23:24:52.243Z,100059.96
2018-12-14T23:27:19.790Z,100060.26
2018-12-14T23:29:47.445Z,100054.27
2018-12-14T23:32:16.149Z,100056.52
2018-12-14T23:34:44.105Z,100054.78
2018-12-14T23:37:14.058Z,100058.17
2018-12-14T23:39:42.398Z,100056.06
2018-12-14T23:42:09.949Z,100056.05
2018-12-14T23:44:37.539Z,100055.73
2018-12-14T23:47:07.087Z,100062.47
2018-12-14T23:49:34.683Z,100058.59
2018-12-14T23:52:02.537Z,100065.06
2018-12-14T23:54:31.369Z,100058.65
2018-12-14T23:57:00.166Z,100072.33
2018-12-14T23:59:28.124Z,100074.14
